createdAt,value
2023-05-13T00:00:00.778Z,187.12
2023-05-13T00:01:04.080Z,202.48
2023-05-13T00:02:07.437Z,141.04
2023-05-13T00:03:10.662Z,158.96
2023-05-13T00:04:13.932Z,151.28
2023-05-13T00:05:17.216Z,192.24
2023-05-13T00:06:20.584Z,174.32
2023-05-13T00:07:23.771Z,197.36
2023-05-13T00:08:27.105Z,212.72
2023-05-13T00:09:30.375Z,210.16
2023-05-13T00:10:33.686Z,212.72
2023-05-13T00:11:36.005Z,230.64
2023-05-13T00:12:39.268Z,207.6
2023-05-13T00:13:42.556Z,212.72
2023-05-13T00:14:46.201Z,233.2
2023-05-13T00:15:49.450Z,187.12
2023-05-13T00:16:52.776Z,215.28
2023-05-13T00:17:56.029Z,212.72
2023-05-13T00:18:59.335Z,202.48
2023-05-13T00:20:02.752Z,194.8
2023-05-13T00:21:05.949Z,210.16
2023-05-13T00:22:09.333Z,202.48
2023-05-13T00:23:12.580Z,194.8
2023-05-13T00:24:15.825Z,151.28
2023-05-13T00:25:18.069Z,128.24
2023-05-13T00:26:21.450Z,130.8
2023-05-13T00:27:24.676Z,148.72
2023-05-13T00:28:27.950Z,135.92
2023-05-13T00:29:31.341Z,141.04
2023-05-13T00:30:34.527Z,171.76
2023-05-13T00:31:37.850Z,156.4
2023-05-13T00:32:41.205Z,192.24
2023-05-13T00:33:44.411Z,240.88
2023-05-13T00:34:47.724Z,253.68
2023-05-13T00:35:50.987Z,258.8
2023-05-13T00:36:54.328Z,266.48
2023-05-13T00:37:57.586Z,269.04
2023-05-13T00:38:59.928Z,269.04
2023-05-13T00:40:03.270Z,266.48
2023-05-13T00:41:06.474Z,256.24
2023-05-13T00:42:09.769Z,261.36
2023-05-13T00:43:13.060Z,235.76
2023-05-13T00:44:16.356Z,238.32
2023-05-13T00:45:19.655Z,256.24
2023-05-13T00:46:22.925Z,253.68
2023-05-13T00:47:26.234Z,230.64
2023-05-13T00:48:29.538Z,217.84
2023-05-13T00:49:32.802Z,222.96
2023-05-13T00:50:36.190Z,251.12
2023-05-13T00:51:39.398Z,238.32
2023-05-13T00:52:41.689Z,256.24
2023-05-13T00:53:44.989Z,274.16
2023-05-13T00:54:48.306Z,256.24
2023-05-13T00:55:51.569Z,217.84
2023-05-13T00:56:54.864Z,230.64
2023-05-13T00:57:58.145Z,230.64
2023-05-13T00:59:01.467Z,199.92
2023-05-13T01:00:04.742Z,176.88
2023-05-13T01:01:08.057Z,212.72
2023-05-13T01:02:11.336Z,174.32
2023-05-13T01:03:14.608Z,141.04
2023-05-13T01:05:21.198Z,143.6
2023-05-13T01:06:23.534Z,174.32
2023-05-13T01:07:26.807Z,171.76
2023-05-13T01:08:30.140Z,138.48
2023-05-13T01:09:33.410Z,128.24
2023-05-13T01:10:36.711Z,123.12
2023-05-13T01:11:40.412Z,164.08
2023-05-13T01:12:43.676Z,222.96
2023-05-13T01:13:47.038Z,235.76
2023-05-13T01:14:50.267Z,266.48
2023-05-13T01:15:53.571Z,256.24
2023-05-13T01:16:56.889Z,266.48
2023-05-13T01:18:00.134Z,251.12
2023-05-13T01:19:03.430Z,294.64
2023-05-13T01:20:05.742Z,274.16
2023-05-13T01:21:09.072Z,297.2
2023-05-13T01:22:12.353Z,310
2023-05-13T01:23:15.647Z,302.32
2023-05-13T01:24:18.910Z,292.08
2023-05-13T01:25:22.180Z,297.2
2023-05-13T01:26:25.494Z,302.32
2023-05-13T01:27:28.831Z,294.64
2023-05-13T01:28:32.076Z,294.64
2023-05-13T01:29:35.354Z,297.2
2023-05-13T01:30:38.690Z,299.76
2023-05-13T01:31:41.944Z,289.52
2023-05-13T01:32:45.247Z,294.64
2023-05-13T01:33:47.540Z,307.44
2023-05-13T01:34:50.865Z,284.4
2023-05-13T01:35:54.126Z,274.16
2023-05-13T01:36:57.426Z,286.96
2023-05-13T01:38:00.728Z,253.68
2023-05-13T01:39:04.037Z,238.32
2023-05-13T01:40:07.298Z,258.8
2023-05-13T01:41:10.587Z,269.04
2023-05-13T01:42:13.870Z,263.92
2023-05-13T01:43:17.190Z,228.08
2023-05-13T01:44:20.457Z,192.24
2023-05-13T01:45:23.740Z,207.6
2023-05-13T01:46:27.045Z,202.48
2023-05-13T01:47:29.345Z,151.28
2023-05-13T01:48:32.714Z,176.88
2023-05-13T01:49:35.957Z,187.12
2023-05-13T01:50:39.242Z,194.8
2023-05-13T01:51:42.573Z,228.08
2023-05-13T01:52:45.808Z,253.68
2023-05-13T01:53:49.107Z,258.8
2023-05-13T01:54:52.452Z,276.72
2023-05-13T01:55:55.681Z,269.04
2023-05-13T01:56:58.980Z,256.24
2023-05-13T01:58:02.344Z,294.64
2023-05-13T01:59:05.625Z,292.08
2023-05-13T02:00:08.850Z,292.08
2023-05-13T02:01:11.224Z,299.76
2023-05-13T02:02:14.453Z,292.08
2023-05-13T02:03:17.741Z,297.2
2023-05-13T02:04:21.049Z,304.88
2023-05-13T02:05:24.329Z,297.2
2023-05-13T02:06:27.625Z,302.32
2023-05-13T02:07:30.906Z,307.44
2023-05-13T02:08:34.316Z,304.88
2023-05-13T02:09:37.507Z,294.64
2023-05-13T02:10:40.806Z,294.64
2023-05-13T02:11:44.121Z,294.64
2023-05-13T02:12:47.381Z,261.36
2023-05-13T02:13:50.698Z,276.72
2023-05-13T02:14:52.967Z,243.44
2023-05-13T02:15:56.281Z,246
2023-05-13T02:16:59.559Z,251.12
2023-05-13T02:18:02.890Z,248.56
2023-05-13T02:19:06.245Z,202.48
2023-05-13T02:20:09.431Z,202.48
2023-05-13T02:21:12.731Z,222.96
2023-05-13T02:22:16.023Z,205.04
2023-05-13T02:23:19.333Z,197.36
2023-05-13T02:24:22.594Z,197.36
2023-05-13T02:25:25.893Z,205.04
2023-05-13T02:26:29.199Z,187.12
2023-05-13T02:27:32.508Z,217.84
2023-05-13T02:28:34.773Z,233.2
2023-05-13T02:29:38.064Z,205.04
2023-05-13T02:30:41.453Z,222.96
2023-05-13T02:31:44.663Z,253.68
2023-05-13T02:32:47.973Z,230.64
2023-05-13T02:33:51.256Z,225.52
2023-05-13T02:34:54.541Z,222.96
2023-05-13T02:35:57.838Z,238.32
2023-05-13T02:37:01.150Z,225.52
2023-05-13T02:38:04.455Z,228.08
2023-05-13T02:39:07.776Z,251.12
2023-05-13T02:40:11.043Z,269.04
2023-05-13T02:41:14.315Z,238.32
2023-05-13T02:42:16.607Z,261.36
2023-05-13T02:43:19.889Z,230.64
2023-05-13T02:44:23.201Z,228.08
2023-05-13T02:45:26.472Z,222.96
2023-05-13T02:46:29.774Z,228.08
2023-05-13T02:47:33.133Z,233.2
2023-05-13T02:48:36.371Z,233.2
2023-05-13T02:49:39.672Z,240.88
2023-05-13T02:50:42.955Z,233.2
2023-05-13T02:51:46.227Z,217.84
2023-05-13T02:52:49.526Z,194.8
2023-05-13T02:53:52.824Z,187.12
2023-05-13T02:54:56.168Z,176.88
2023-05-13T02:55:58.520Z,202.48
2023-05-13T02:57:01.699Z,217.84
2023-05-13T02:58:05.031Z,215.28
2023-05-13T02:59:08.287Z,212.72
2023-05-13T03:00:11.582Z,222.96
2023-05-13T03:01:14.880Z,179.44
2023-05-13T03:02:18.210Z,199.92
2023-05-13T03:03:21.546Z,202.48
2023-05-13T03:04:24.751Z,179.44
2023-05-13T03:05:28.037Z,166.64
2023-05-13T03:06:31.402Z,151.28
2023-05-13T03:07:34.643Z,166.64
2023-05-13T03:08:37.916Z,189.68
2023-05-13T03:09:41.234Z,202.48
2023-05-13T03:10:43.527Z,187.12
2023-05-13T03:11:47.162Z,215.28
2023-05-13T03:12:50.524Z,197.36
2023-05-13T03:13:53.793Z,176.88
2023-05-13T03:14:57.148Z,176.88
2023-05-13T03:15:59.361Z,176.88
2023-05-13T03:17:02.677Z,187.12
2023-05-13T03:18:05.940Z,169.2
2023-05-13T03:19:09.284Z,205.04
2023-05-13T03:20:12.514Z,187.12
2023-05-13T03:21:15.839Z,217.84
2023-05-13T03:22:19.143Z,220.4
2023-05-13T03:23:22.387Z,230.64
2023-05-13T03:24:25.685Z,210.16
2023-05-13T03:25:28.965Z,212.72
2023-05-13T03:26:32.257Z,210.16
2023-05-13T03:27:35.561Z,220.4
2023-05-13T03:28:38.868Z,202.48
2023-05-13T03:29:42.142Z,220.4
2023-05-13T03:30:44.472Z,194.8
2023-05-13T03:31:47.772Z,182
2023-05-13T03:32:51.069Z,156.4
2023-05-13T03:33:54.324Z,169.2
2023-05-13T03:34:57.652Z,161.52
2023-05-13T03:36:00.918Z,171.76
2023-05-13T03:37:04.220Z,194.8
2023-05-13T03:38:07.485Z,161.52
2023-05-13T03:39:10.801Z,171.76
2023-05-13T03:40:14.100Z,176.88
2023-05-13T03:41:17.364Z,148.72
2023-05-13T03:42:20.693Z,153.84
2023-05-13T03:43:23.962Z,138.48
2023-05-13T03:44:26.279Z,151.28
2023-05-13T03:45:29.567Z,141.04
2023-05-13T03:46:32.850Z,118
2023-05-13T03:47:36.126Z,133.36
2023-05-13T03:48:39.434Z,153.84
2023-05-13T03:49:42.715Z,128.24
2023-05-13T03:50:46.013Z,123.12
2023-05-13T03:51:49.305Z,135.92
2023-05-13T03:52:52.645Z,146.16
2023-05-13T03:53:55.891Z,141.04
2023-05-13T03:54:59.185Z,156.4
2023-05-13T03:56:02.483Z,153.84
2023-05-13T03:57:05.797Z,164.08
2023-05-13T03:58:08.068Z,161.52
2023-05-13T03:59:11.375Z,151.28
2023-05-13T04:00:14.674Z,153.84
2023-05-13T04:01:17.957Z,148.72
2023-05-13T04:02:21.290Z,151.28
2023-05-13T04:03:24.636Z,161.52
2023-05-13T04:04:27.829Z,156.4
2023-05-13T04:05:31.130Z,151.28
2023-05-13T04:06:34.415Z,166.64
2023-05-13T04:07:37.746Z,197.36
2023-05-13T04:08:41.012Z,171.76
2023-05-13T04:09:44.461Z,158.96
2023-05-13T04:10:47.787Z,156.4
2023-05-13T04:11:50.078Z,153.84
2023-05-13T04:12:53.365Z,146.16
2023-05-13T04:13:56.760Z,146.16
2023-05-13T04:14:59.971Z,110.32
2023-05-13T04:16:03.227Z,92.4
2023-05-13T04:17:06.548Z,92.4
2023-05-13T04:18:09.861Z,115.44
2023-05-13T04:19:13.130Z,56.56
2023-05-13T04:20:16.444Z,38.64
2023-05-13T04:21:19.732Z,64.24
2023-05-13T04:22:23.014Z,56.56
2023-05-13T04:23:26.359Z,66.8
2023-05-13T04:24:29.587Z,146.16
2023-05-13T04:25:31.891Z,84.72
2023-05-13T04:26:35.220Z,100.08
2023-05-13T04:27:38.493Z,105.2
2023-05-13T04:28:41.756Z,64.24
2023-05-13T04:29:45.054Z,64.24
2023-05-13T04:30:48.369Z,36.08
2023-05-13T04:31:51.713Z,43.76
2023-05-13T04:32:54.940Z,54
2023-05-13T04:33:58.250Z,51.44
2023-05-13T04:35:01.568Z,66.8
2023-05-13T04:36:04.881Z,56.56
2023-05-13T04:37:08.097Z,66.8
2023-05-13T04:38:11.441Z,61.68
2023-05-13T04:39:13.701Z,61.68
2023-05-13T04:40:16.981Z,82.16
2023-05-13T04:41:20.289Z,66.8
2023-05-13T04:42:23.630Z,77.04
2023-05-13T04:43:26.901Z,107.76
2023-05-13T04:44:30.202Z,71.92
2023-05-13T04:45:33.441Z,92.4
2023-05-13T04:46:36.756Z,48.88
2023-05-13T04:47:40.141Z,74.48
2023-05-13T04:48:43.428Z,71.92
2023-05-13T04:49:46.608Z,66.8
2023-05-13T04:50:49.959Z,51.44
2023-05-13T04:51:53.243Z,71.92
2023-05-13T04:52:55.500Z,51.44
2023-05-13T04:53:58.843Z,56.56
2023-05-13T04:55:02.148Z,92.4
2023-05-13T04:56:05.389Z,92.4
2023-05-13T04:57:08.694Z,59.12
2023-05-13T04:58:11.985Z,64.24
2023-05-13T04:59:15.281Z,41.2
2023-05-13T05:00:18.567Z,23.28
2023-05-13T05:01:21.838Z,15.6
2023-05-13T05:02:25.192Z,20.72
2023-05-13T05:03:28.445Z,20.72
2023-05-13T05:04:31.719Z,5.36
2023-05-13T05:05:34.999Z,15.6
2023-05-13T05:06:37.346Z,18.16
2023-05-13T05:07:40.642Z,13.04
2023-05-13T05:08:43.900Z,7.92
2023-05-13T05:09:47.213Z,5.36
2023-05-13T05:10:50.593Z,5.36
2023-05-13T05:11:53.765Z,18.16
2023-05-13T05:12:57.147Z,10.48
2023-05-13T05:14:00.400Z,13.04
2023-05-13T05:15:03.686Z,18.16
2023-05-13T05:16:06.954Z,10.48
2023-05-13T05:17:10.239Z,2.8
2023-05-13T05:18:13.591Z,28.4
2023-05-13T05:19:16.858Z,28.4
2023-05-13T05:20:19.137Z,43.76
2023-05-13T05:21:22.530Z,43.76
2023-05-13T05:22:25.728Z,38.64
2023-05-13T05:23:29.042Z,51.44
2023-05-13T05:24:32.327Z,36.08
2023-05-13T05:25:35.599Z,25.84
2023-05-13T05:26:38.867Z,30.96
2023-05-13T05:27:42.194Z,36.08
2023-05-13T05:28:45.471Z,36.08
2023-05-13T05:29:48.755Z,18.16
2023-05-13T05:30:52.056Z,5.36
2023-05-13T05:31:55.406Z,5.36
2023-05-13T05:32:58.630Z,18.16
2023-05-13T05:34:00.937Z,15.6
2023-05-13T05:35:04.261Z,15.6
2023-05-13T05:36:07.542Z,18.16
2023-05-13T05:37:10.811Z,7.92
2023-05-13T05:38:14.142Z,15.6
2023-05-13T05:39:17.410Z,-4.89
2023-05-13T05:40:20.695Z,-7.45
2023-05-13T05:41:24.048Z,-2.33
2023-05-13T05:42:27.300Z,-15.13
2023-05-13T05:43:30.599Z,-15.13
2023-05-13T05:44:33.862Z,-25.37
2023-05-13T05:45:37.144Z,-15.13
2023-05-13T05:46:40.463Z,-15.13
2023-05-13T05:47:42.770Z,-15.13
2023-05-13T05:48:46.044Z,-4.89
2023-05-13T05:49:49.359Z,-33.05
2023-05-13T05:50:52.643Z,-43.29
2023-05-13T05:51:55.927Z,5.36
2023-05-13T05:52:59.216Z,-33.05
2023-05-13T05:54:02.494Z,0.24
2023-05-13T05:55:05.811Z,10.48
2023-05-13T05:56:09.089Z,-2.33
2023-05-13T05:57:12.381Z,-4.89
2023-05-13T05:58:15.667Z,-12.57
2023-05-13T05:59:19.021Z,-17.69
2023-05-13T06:00:22.266Z,-27.93
2023-05-13T06:01:24.617Z,-17.69
2023-05-13T06:02:27.857Z,-10.01
2023-05-13T06:03:31.167Z,2.8
2023-05-13T06:04:34.486Z,41.2
2023-05-13T06:05:37.776Z,51.44
2023-05-13T06:06:41.130Z,36.08
2023-05-13T06:07:44.324Z,51.44
2023-05-13T06:08:47.613Z,23.28
2023-05-13T06:09:50.906Z,38.64
2023-05-13T06:10:54.216Z,36.08
2023-05-13T06:11:57.526Z,30.96
2023-05-13T06:13:00.844Z,33.52
2023-05-13T06:14:04.137Z,38.64
2023-05-13T06:15:06.433Z,36.08
2023-05-13T06:16:09.660Z,2.8
2023-05-13T06:17:13.022Z,2.8
2023-05-13T06:18:16.349Z,-2.33
2023-05-13T06:19:19.550Z,18.16
2023-05-13T06:20:22.849Z,-4.89
2023-05-13T06:21:26.135Z,5.36
2023-05-13T06:22:29.454Z,-17.69
2023-05-13T06:23:32.799Z,-35.61
2023-05-13T06:24:36.052Z,-27.93
2023-05-13T06:25:39.286Z,-15.13
2023-05-13T06:26:42.606Z,-15.13
2023-05-13T06:27:45.903Z,84.72
2023-05-13T06:28:48.236Z,23.28
2023-05-13T06:29:51.474Z,-4.89
2023-05-13T06:30:54.768Z,41.2
2023-05-13T06:31:58.081Z,-17.69
2023-05-13T06:33:01.361Z,-43.29
2023-05-13T06:34:04.697Z,-45.85
2023-05-13T06:35:07.964Z,-71.45
2023-05-13T06:36:11.262Z,-130.33
2023-05-13T06:37:14.525Z,-127.77
2023-05-13T06:38:17.836Z,-91.93
2023-05-13T06:39:21.098Z,-25.37
2023-05-13T06:40:24.443Z,15.6
2023-05-13T06:41:27.710Z,13.04
2023-05-13T06:42:30.005Z,38.64
2023-05-13T06:43:33.473Z,46.32
2023-05-13T06:44:36.573Z,36.08
2023-05-13T06:45:39.875Z,38.64
2023-05-13T06:46:43.195Z,28.4
2023-05-13T06:47:45.489Z,56.56
2023-05-13T06:48:48.792Z,36.08
2023-05-13T06:49:52.063Z,41.2
2023-05-13T06:50:55.365Z,30.96
2023-05-13T06:51:58.650Z,25.84
2023-05-13T06:53:01.944Z,5.36
2023-05-13T06:54:05.290Z,-10.01
2023-05-13T06:55:08.572Z,-30.49
2023-05-13T06:56:11.897Z,-45.85
2023-05-13T06:57:15.125Z,-74.01
2023-05-13T06:58:18.399Z,-81.69
2023-05-13T06:59:21.687Z,-84.25
2023-05-13T07:00:24.997Z,-109.85
2023-05-13T07:01:27.303Z,-109.85
2023-05-13T07:02:30.577Z,-112.41
2023-05-13T07:03:33.874Z,-107.29
2023-05-13T07:04:37.170Z,-99.61
2023-05-13T07:05:40.456Z,-120.09
2023-05-13T07:06:43.738Z,-104.73
2023-05-13T07:07:47.044Z,-99.61
2023-05-13T07:08:50.331Z,-104.73
2023-05-13T07:09:53.661Z,-99.61
2023-05-13T07:10:56.971Z,-109.85
2023-05-13T07:12:00.221Z,-107.29
2023-05-13T07:13:03.517Z,-99.61
2023-05-13T07:14:06.811Z,-97.05
2023-05-13T07:15:09.140Z,-107.29
2023-05-13T07:16:12.396Z,-107.29
2023-05-13T07:17:15.690Z,-117.53
2023-05-13T07:18:18.983Z,-117.53
2023-05-13T07:19:22.253Z,-104.73
2023-05-13T07:20:25.595Z,-120.09
2023-05-13T07:21:28.835Z,-125.21
2023-05-13T07:22:32.182Z,-127.77
2023-05-13T07:23:35.423Z,-140.57
2023-05-13T07:24:38.821Z,-145.69
2023-05-13T07:25:42.011Z,-155.93
2023-05-13T07:26:45.308Z,-158.49
2023-05-13T07:27:48.883Z,-132.89
2023-05-13T07:28:51.186Z,-125.21
2023-05-13T07:29:54.484Z,-138.01
2023-05-13T07:30:57.870Z,-171.29
2023-05-13T07:32:01.084Z,-166.17
2023-05-13T07:33:04.380Z,-168.73
2023-05-13T07:34:07.670Z,-181.53
2023-05-13T07:35:10.981Z,-199.45
2023-05-13T07:36:14.248Z,-214.81
2023-05-13T07:37:17.554Z,-240.41
2023-05-13T07:38:20.825Z,-250.65
2023-05-13T07:39:24.125Z,-268.57
2023-05-13T07:40:27.413Z,0
2023-05-13T07:41:30.717Z,-278.81
2023-05-13T07:42:33.015Z,-289.05
2023-05-13T07:43:36.356Z,-289.05
2023-05-13T07:44:39.599Z,-289.05
2023-05-13T07:45:43.044Z,-286.49
2023-05-13T07:46:46.383Z,-278.81
2023-05-13T07:47:49.606Z,-260.89
2023-05-13T07:48:52.911Z,-255.77
2023-05-13T07:49:56.198Z,0
2023-05-13T07:50:59.486Z,-248.09
2023-05-13T07:52:02.777Z,-245.53
2023-05-13T07:53:06.094Z,-253.21
2023-05-13T07:54:09.379Z,-248.09
2023-05-13T07:55:12.756Z,-237.85
2023-05-13T07:56:14.993Z,-235.29
2023-05-13T07:57:18.274Z,-248.09
2023-05-13T07:58:21.548Z,-232.73
2023-05-13T07:59:24.844Z,-227.61
2023-05-13T08:00:28.180Z,-227.61
2023-05-13T08:01:31.498Z,-232.73
2023-05-13T08:02:34.798Z,-240.41
2023-05-13T08:03:38.005Z,-230.17
2023-05-13T08:04:41.324Z,-230.17
2023-05-13T08:05:44.628Z,-225.05
2023-05-13T08:06:47.947Z,-217.37
2023-05-13T08:07:51.194Z,-212.25
2023-05-13T08:08:54.472Z,-212.25
2023-05-13T08:09:56.782Z,-212.25
2023-05-13T08:11:00.092Z,-230.17
2023-05-13T08:12:03.378Z,-253.21
2023-05-13T08:13:06.679Z,-273.69
2023-05-13T08:14:09.951Z,-273.69
2023-05-13T08:15:13.241Z,-278.81
2023-05-13T08:16:16.532Z,302.31
2023-05-13T08:17:19.864Z,194.79
2023-05-13T08:18:23.133Z,228.07
2023-05-13T08:19:26.504Z,225.51
2023-05-13T08:20:29.800Z,238.31
2023-05-13T08:21:32.999Z,233.19
2023-05-13T08:22:36.337Z,217.83
2023-05-13T08:23:38.605Z,197.35
2023-05-13T08:24:41.890Z,151.27
2023-05-13T08:25:45.183Z,184.55
2023-05-13T08:26:48.469Z,220.39
2023-05-13T08:27:51.795Z,269.03
2023-05-13T08:28:55.166Z,256.23
2023-05-13T08:29:58.385Z,245.99
2023-05-13T08:31:01.641Z,292.07
2023-05-13T08:32:04.957Z,315.11
2023-05-13T08:33:08.222Z,-324.89
2023-05-13T08:34:11.521Z,-317.21
2023-05-13T08:35:14.810Z,-306.97
2023-05-13T08:36:18.100Z,294.63
2023-05-13T08:37:20.423Z,297.19
2023-05-13T08:38:23.690Z,-319.77
2023-05-13T08:39:26.984Z,-296.73
2023-05-13T08:40:30.300Z,-306.97
2023-05-13T08:41:33.605Z,-309.53
2023-05-13T08:42:36.846Z,317.67
2023-05-13T08:43:40.165Z,297.19
2023-05-13T08:44:43.489Z,279.27
2023-05-13T08:45:46.763Z,258.79
2023-05-13T08:46:50.179Z,251.11
2023-05-13T08:47:53.437Z,220.39
2023-05-13T08:48:56.625Z,228.07
2023-05-13T08:49:59.936Z,309.99
2023-05-13T08:51:02.216Z,-301.85
2023-05-13T08:52:05.504Z,322.79
2023-05-13T08:53:08.829Z,256.23
2023-05-13T08:54:12.109Z,202.47
2023-05-13T08:55:15.381Z,217.83
2023-05-13T08:56:18.691Z,205.03
2023-05-13T08:57:21.976Z,189.67
2023-05-13T08:58:25.302Z,174.31
2023-05-13T08:59:28.546Z,133.35
2023-05-13T09:00:31.849Z,148.71
2023-05-13T09:01:35.152Z,158.95
2023-05-13T09:02:38.417Z,123.11
2023-05-13T09:03:41.776Z,184.55
2023-05-13T09:04:44.075Z,199.91
2023-05-13T09:05:47.322Z,243.43
2023-05-13T09:06:50.628Z,251.11
2023-05-13T09:07:53.907Z,243.43
2023-05-13T09:08:57.218Z,194.79
2023-05-13T09:10:00.491Z,225.51
2023-05-13T09:11:03.850Z,274.15
2023-05-13T09:12:07.160Z,269.03
2023-05-13T09:13:10.398Z,299.75
2023-05-13T09:14:13.655Z,256.23
2023-05-13T09:15:16.974Z,274.15
2023-05-13T09:16:20.330Z,281.83
2023-05-13T09:17:23.530Z,261.35
2023-05-13T09:18:25.826Z,230.63
2023-05-13T09:19:29.135Z,179.43
2023-05-13T09:20:32.560Z,187.11
2023-05-13T09:21:35.801Z,299.75
2023-05-13T09:22:39.221Z,235.75
2023-05-13T09:23:42.497Z,194.79
2023-05-13T09:24:45.757Z,176.87
2023-05-13T09:25:48.872Z,141.03
2023-05-13T09:26:52.359Z,133.35
2023-05-13T09:27:55.595Z,141.03
2023-05-13T09:28:58.833Z,138.47
2023-05-13T09:30:02.047Z,153.83
2023-05-13T09:31:05.350Z,117.99
2023-05-13T09:32:07.812Z,100.07
2023-05-13T09:33:10.935Z,94.95
2023-05-13T09:34:14.241Z,128.23
2023-05-13T09:35:17.592Z,84.71
2023-05-13T09:36:20.923Z,105.19
2023-05-13T09:37:24.139Z,117.99
2023-05-13T09:38:27.519Z,143.59
2023-05-13T09:39:30.730Z,117.99
2023-05-13T09:40:34.061Z,89.83
2023-05-13T09:41:37.406Z,135.91
2023-05-13T09:42:40.648Z,169.19
2023-05-13T09:43:43.946Z,110.31
2023-05-13T09:44:47.192Z,307.43
2023-05-13T09:45:49.456Z,309.99
2023-05-13T09:46:52.893Z,297.19
2023-05-13T09:47:56.067Z,294.63
2023-05-13T09:48:59.336Z,-309.53
2023-05-13T09:50:02.631Z,-278.81
2023-05-13T09:51:05.950Z,0
2023-05-13T09:52:09.211Z,-281.37
2023-05-13T09:53:12.514Z,-319.77
2023-05-13T09:54:15.809Z,263.91
2023-05-13T09:55:19.099Z,271.59
2023-05-13T09:56:22.405Z,322.79
2023-05-13T09:57:25.737Z,253.67
2023-05-13T09:58:28.975Z,289.51
2023-05-13T09:59:31.268Z,192.23
2023-05-13T10:00:34.574Z,220.39
2023-05-13T10:01:37.849Z,302.31
2023-05-13T10:02:41.161Z,243.43
2023-05-13T10:03:44.433Z,263.91
2023-05-13T10:04:47.882Z,312.55
2023-05-13T10:05:51.163Z,294.63
2023-05-13T10:06:54.378Z,309.99
2023-05-13T10:07:57.700Z,258.79
2023-05-13T10:09:00.915Z,220.39
2023-05-13T10:10:04.201Z,141.03
2023-05-13T10:11:07.618Z,158.95
2023-05-13T10:12:10.813Z,138.47
2023-05-13T10:13:13.114Z,158.95
2023-05-13T10:14:16.435Z,187.11
2023-05-13T10:15:19.726Z,153.83
2023-05-13T10:16:22.954Z,153.83
2023-05-13T10:17:26.279Z,153.83
2023-05-13T10:19:32.835Z,153.83
2023-05-13T10:20:35.156Z,156.39
2023-05-13T10:21:38.456Z,169.19
2023-05-13T10:22:41.739Z,148.71
2023-05-13T10:23:45.032Z,181.99
2023-05-13T10:24:48.331Z,197.35
2023-05-13T10:25:51.641Z,179.43
2023-05-13T10:26:54.936Z,156.39
2023-05-13T10:27:58.205Z,164.07
2023-05-13T10:29:01.487Z,161.51
2023-05-13T10:30:04.785Z,174.31
2023-05-13T10:31:08.101Z,202.47
2023-05-13T10:32:11.430Z,207.59
2023-05-13T10:33:14.669Z,233.19
2023-05-13T10:34:16.962Z,212.71
2023-05-13T10:35:20.266Z,192.23
2023-05-13T10:36:23.581Z,215.27
2023-05-13T10:37:26.842Z,217.83
2023-05-13T10:38:30.157Z,202.47
2023-05-13T10:39:33.432Z,220.39
2023-05-13T10:40:36.714Z,276.71
2023-05-13T10:41:40.000Z,274.15
2023-05-13T10:42:43.313Z,261.35
2023-05-13T10:43:47.017Z,197.35
2023-05-13T10:44:50.270Z,192.23
2023-05-13T10:45:53.576Z,181.99
2023-05-13T10:46:57.020Z,187.11
2023-05-13T10:47:59.161Z,166.63
2023-05-13T10:49:02.520Z,82.15
2023-05-13T10:50:05.767Z,-150.82
2023-05-13T10:51:09.060Z,238.3
2023-05-13T10:52:12.363Z,38.62
2023-05-13T10:53:15.610Z,-71.47
2023-05-13T10:54:18.919Z,10.46
2023-05-13T10:55:22.208Z,97.5
2023-05-13T10:56:25.498Z,181.98
2023-05-13T10:57:28.826Z,174.3
2023-05-13T10:58:32.165Z,225.5
2023-05-13T10:59:35.372Z,243.42
2023-05-13T11:00:38.677Z,-163.62
2023-05-13T11:01:40.982Z,-114.98
2023-05-13T11:02:44.274Z,-271.14
2023-05-13T11:03:47.577Z,164.06
2023-05-13T11:04:50.849Z,-296.74
2023-05-13T11:05:54.146Z,-230.18
2023-05-13T11:06:57.424Z,-283.94
2023-05-13T11:08:00.745Z,-181.54
2023-05-13T11:09:04.035Z,-125.22
2023-05-13T11:10:07.319Z,-102.18
2023-05-13T11:11:10.608Z,-79.14
2023-05-13T11:12:13.904Z,28.39
2023-05-13T11:13:17.193Z,-27.94
2023-05-13T11:14:20.588Z,-58.66
2023-05-13T11:15:22.777Z,-76.58
2023-05-13T11:16:26.080Z,-109.86
2023-05-13T11:17:29.413Z,-153.38
2023-05-13T11:18:32.663Z,-176.42
2023-05-13T11:19:36.046Z,-114.98
2023-05-13T11:20:39.258Z,-102.18
2023-05-13T11:21:42.585Z,-71.46
2023-05-13T11:22:45.833Z,-153.38
2023-05-13T11:23:49.134Z,-130.34
2023-05-13T11:24:52.475Z,-104.74
2023-05-13T11:25:55.718Z,-45.86
2023-05-13T11:26:59.016Z,87.27
2023-05-13T11:28:02.355Z,120.55
2023-05-13T11:29:04.608Z,51.43
2023-05-13T11:30:07.874Z,56.55
2023-05-13T11:31:11.195Z,48.87
2023-05-13T11:32:14.500Z,61.67
2023-05-13T11:33:17.767Z,79.59
2023-05-13T11:34:21.067Z,66.79
2023-05-13T11:35:24.361Z,18.15
2023-05-13T11:36:27.639Z,13.03
2023-05-13T11:37:31.010Z,53.99
2023-05-13T11:38:34.236Z,43.75
2023-05-13T11:39:37.532Z,59.11
2023-05-13T11:40:40.819Z,25.83
2023-05-13T11:41:44.409Z,46.31
2023-05-13T11:42:46.707Z,38.63
2023-05-13T11:43:50.441Z,28.39
2023-05-13T11:44:53.729Z,33.51
2023-05-13T11:45:57.032Z,-10.02
2023-05-13T11:47:00.356Z,-7.46
2023-05-13T11:48:03.594Z,-7.46
2023-05-13T11:49:06.893Z,-20.26
2023-05-13T11:50:10.180Z,-43.3
2023-05-13T11:51:13.491Z,-86.82
2023-05-13T11:52:16.798Z,-161.06
2023-05-13T11:53:20.097Z,-130.34
2023-05-13T11:54:23.373Z,-161.06
2023-05-13T11:55:26.667Z,-178.98
2023-05-13T11:56:28.955Z,-207.14
2023-05-13T11:57:32.246Z,-155.94
2023-05-13T11:58:35.535Z,-150.82
2023-05-13T11:59:38.845Z,-117.54
2023-05-13T12:00:42.128Z,-166.18
2023-05-13T12:01:45.454Z,-199.46
2023-05-13T12:02:48.716Z,-202.02
2023-05-13T12:03:52.088Z,-155.94
2023-05-13T12:04:55.302Z,-125.22
2023-05-13T12:05:58.592Z,-86.82
2023-05-13T12:07:01.883Z,-94.5
2023-05-13T12:08:05.163Z,-117.54
2023-05-13T12:09:08.471Z,-163.62
2023-05-13T12:10:10.922Z,-135.46
2023-05-13T12:11:14.071Z,-153.38
2023-05-13T12:12:17.470Z,-143.14
2023-05-13T12:13:20.652Z,-138.02
2023-05-13T12:14:23.938Z,-161.06
2023-05-13T12:15:27.396Z,-145.7
2023-05-13T12:16:30.543Z,-153.38
2023-05-13T12:17:33.929Z,-140.58
2023-05-13T12:18:37.108Z,-181.54
2023-05-13T12:19:40.418Z,-219.94
2023-05-13T12:20:43.735Z,-184.1
2023-05-13T12:21:46.993Z,-186.66
2023-05-13T12:22:50.698Z,-191.78
2023-05-13T12:23:53.051Z,-196.9
2023-05-13T12:24:56.263Z,-196.9
2023-05-13T12:25:59.706Z,-217.38
2023-05-13T12:27:02.832Z,-242.98
2023-05-13T12:28:06.130Z,-242.98
2023-05-13T12:29:09.432Z,-242.98
2023-05-13T12:30:12.710Z,-253.22
2023-05-13T12:31:16.024Z,-266.02
2023-05-13T12:32:19.300Z,-253.22
2023-05-13T12:33:22.605Z,-268.58
2023-05-13T12:34:25.876Z,-283.94
2023-05-13T12:35:29.162Z,-278.82
2023-05-13T12:36:32.514Z,-248.1
2023-05-13T12:37:34.764Z,-242.98
2023-05-13T12:38:38.064Z,-232.74
2023-05-13T12:39:41.366Z,-232.74
2023-05-13T12:40:44.817Z,-155.94
2023-05-13T12:41:48.094Z,-217.38
2023-05-13T12:42:51.426Z,-227.62
2023-05-13T12:43:54.671Z,-222.5
2023-05-13T12:44:57.962Z,-232.74
2023-05-13T12:46:01.251Z,-250.66
2023-05-13T12:47:04.627Z,-242.98
2023-05-13T12:48:07.868Z,-225.06
2023-05-13T12:49:11.133Z,-232.74
2023-05-13T12:50:14.437Z,-235.3
2023-05-13T12:51:16.779Z,-232.74
2023-05-13T12:52:20.082Z,-248.1
2023-05-13T12:53:23.407Z,-263.46
2023-05-13T12:54:26.639Z,-258.34
2023-05-13T12:55:29.902Z,-248.1
2023-05-13T12:56:33.181Z,-278.82
2023-05-13T12:57:36.612Z,-268.58
2023-05-13T12:58:39.774Z,-286.5
2023-05-13T12:59:43.068Z,-266.02
2023-05-13T13:00:46.362Z,-263.46
2023-05-13T13:01:49.683Z,-301.86
2023-05-13T13:02:52.953Z,-158.5
2023-05-13T13:03:56.342Z,-191.78
2023-05-13T13:04:58.553Z,-222.5
2023-05-13T13:06:01.831Z,-281.38
2023-05-13T13:07:05.118Z,-319.78
2023-05-13T13:08:08.452Z,-319.78
2023-05-13T13:09:11.710Z,-294.18
2023-05-13T13:10:15.093Z,-271.14
2023-05-13T13:11:18.360Z,-266.02
2023-05-13T13:12:21.625Z,-263.46
2023-05-13T13:13:25.099Z,-232.74